createdAt,value
2019-06-08T00:01:18.427Z,7.40
2019-06-08T00:03:48.040Z,12.90
2019-06-08T00:06:18.754Z,14.10
2019-06-08T00:08:48.160Z,12.00
2019-06-08T00:11:17.514Z,9.48
2019-06-08T00:13:46.823Z,13.18
2019-06-08T00:16:23.908Z,11.57
2019-06-08T00:18:53.347Z,9.35
2019-06-08T00:21:23.911Z,9.25
2019-06-08T00:23:53.771Z,12.68
2019-06-08T00:26:33.333Z,10.65
2019-06-08T00:28:54.288Z,9.58
2019-06-08T00:31:23.664Z,9.55
2019-06-08T00:33:52.971Z,7.55
2019-06-08T00:36:23.019Z,7.95
2019-06-08T00:38:52.431Z,14.87
2019-06-08T00:41:22.375Z,11.28
2019-06-08T00:43:52.914Z,11.60
2019-06-08T00:46:23.495Z,8.88
2019-06-08T00:48:53.008Z,19.80
2019-06-08T00:51:23.083Z,20.32
2019-06-08T00:53:52.648Z,14.80
2019-06-08T00:56:21.975Z,9.93
2019-06-08T00:58:51.386Z,10.55
2019-06-08T01:01:22.764Z,13.25
2019-06-08T01:03:51.754Z,9.98
2019-06-08T01:06:21.092Z,9.33
2019-06-08T01:08:50.415Z,8.25
2019-06-08T01:11:20.928Z,7.87
2019-06-08T01:13:50.337Z,10.60
2019-06-08T01:16:20.837Z,9.80
2019-06-08T01:18:50.349Z,10.82
2019-06-08T01:21:19.678Z,10.60
2019-06-08T01:23:49.005Z,10.88
2019-06-08T01:26:19.685Z,10.68
2019-06-08T01:28:49.217Z,7.22
2019-06-08T01:31:18.539Z,11.78
2019-06-08T01:33:47.887Z,13.05
2019-06-08T01:36:17.191Z,8.35
2019-06-08T01:38:46.520Z,13.08
2019-06-08T01:41:21.606Z,13.55
2019-06-08T01:43:50.999Z,8.70
2019-06-08T01:46:21.758Z,17.23
2019-06-08T01:48:51.134Z,15.32
2019-06-08T01:51:20.479Z,12.95
2019-06-08T01:53:49.801Z,11.53
2019-06-08T01:56:19.285Z,11.43
2019-06-08T01:58:48.569Z,7.90
2019-06-08T02:01:17.965Z,9.13
2019-06-08T02:03:47.288Z,11.63
2019-06-08T02:06:19.376Z,10.80
2019-06-08T02:09:30.848Z,9.55
2019-06-08T02:12:00.330Z,8.73
2019-06-08T02:14:31.054Z,12.90
2019-06-08T02:17:01.629Z,11.40
2019-06-08T02:19:30.971Z,15.58
2019-06-08T02:22:01.813Z,10.50
2019-06-08T02:24:31.208Z,13.62
2019-06-08T02:27:00.641Z,9.33
2019-06-08T02:29:29.920Z,8.88
2019-06-08T02:31:59.252Z,10.93
2019-06-08T02:34:30.558Z,12.65
2019-06-08T02:36:59.791Z,16.52
2019-06-08T02:39:30.379Z,8.13
2019-06-08T02:41:59.775Z,10.48
2019-06-08T02:44:30.226Z,8.98
2019-06-08T02:46:59.629Z,11.05
2019-06-08T02:49:29.176Z,9.73
2019-06-08T02:51:58.806Z,15.00
2019-06-08T02:54:30.090Z,12.13
2019-06-08T02:57:02.707Z,14.07
2019-06-08T02:59:35.627Z,10.15
2019-06-08T03:02:05.573Z,17.10
2019-06-08T03:04:38.742Z,6.75
2019-06-08T03:07:10.678Z,13.45
2019-06-08T03:09:41.167Z,13.38
2019-06-08T03:12:10.634Z,9.65
2019-06-08T03:14:43.061Z,11.73
2019-06-08T03:17:12.580Z,12.40
2019-06-08T03:19:42.074Z,9.98
2019-06-08T03:22:11.604Z,8.33
2019-06-08T03:24:41.590Z,11.22
2019-06-08T03:27:11.606Z,11.95
2019-06-08T03:29:42.158Z,6.92
2019-06-08T03:32:12.309Z,11.90
2019-06-08T03:34:53.689Z,9.98
2019-06-08T03:37:12.789Z,11.75
2019-06-08T03:39:43.126Z,11.43
2019-06-08T03:42:12.612Z,13.35
2019-06-08T03:44:42.996Z,14.60
2019-06-08T03:47:13.210Z,9.25
2019-06-08T03:49:53.614Z,11.70
2019-06-08T03:52:13.590Z,12.35
2019-06-08T03:54:44.755Z,15.15
2019-06-08T03:57:15.374Z,6.42
2019-06-08T03:59:46.108Z,13.68
2019-06-08T04:02:15.841Z,17.23
2019-06-08T04:04:46.315Z,11.75
2019-06-08T04:07:15.835Z,9.03
2019-06-08T04:09:45.930Z,15.08
2019-06-08T04:12:15.429Z,15.45
2019-06-08T04:14:46.474Z,16.45
2019-06-08T04:17:15.799Z,19.73
2019-06-08T04:20:08.096Z,12.70
2019-06-08T04:22:16.314Z,18.50
2019-06-08T04:24:46.650Z,18.52
2019-06-08T04:27:16.129Z,24.27
2019-06-08T04:29:46.112Z,15.72
2019-06-08T04:32:15.570Z,16.27
2019-06-08T04:34:45.538Z,15.45
2019-06-08T04:37:16.109Z,13.32
2019-06-08T04:39:46.935Z,14.63
2019-06-08T04:42:16.421Z,16.65
2019-06-08T04:44:46.967Z,13.05
2019-06-08T04:47:17.006Z,18.87
2019-06-08T04:49:47.223Z,13.25
2019-06-08T04:52:17.553Z,14.75
2019-06-08T04:54:47.687Z,15.32
2019-06-08T04:57:18.237Z,15.35
2019-06-08T04:59:48.378Z,15.55
2019-06-08T05:02:18.611Z,17.02
2019-06-08T05:04:49.474Z,18.37
2019-06-08T05:07:39.185Z,11.60
2019-06-08T05:10:10.192Z,10.80
2019-06-08T05:12:41.167Z,11.12
2019-06-08T05:15:11.102Z,17.00
2019-06-08T05:17:41.302Z,20.08
2019-06-08T05:20:11.081Z,13.43
2019-06-08T05:22:41.465Z,12.82
2019-06-08T05:25:10.870Z,13.08
2019-06-08T05:27:41.192Z,10.63
2019-06-08T05:30:11.236Z,18.48
2019-06-08T05:32:41.377Z,13.88
2019-06-08T05:35:11.911Z,11.35
2019-06-08T05:37:41.555Z,12.70
2019-06-08T05:40:11.034Z,11.93
2019-06-08T05:42:42.783Z,14.63
2019-06-08T05:45:13.295Z,9.78
2019-06-08T05:47:43.898Z,15.23
2019-06-08T05:50:13.881Z,14.93
2019-06-08T05:52:44.166Z,11.53
2019-06-08T05:55:14.284Z,9.63
2019-06-08T05:57:44.200Z,12.60
2019-06-08T06:00:15.126Z,10.15
2019-06-08T06:02:44.820Z,18.17
2019-06-08T06:05:44.503Z,16.02
2019-06-08T06:08:18.857Z,13.45
2019-06-08T06:10:58.606Z,17.60
2019-06-08T06:15:56.503Z,12.13
2019-06-08T06:18:26.011Z,15.95
2019-06-08T06:21:09.741Z,14.23
2019-06-08T06:23:28.112Z,11.97
2019-06-08T06:25:57.723Z,11.05
2019-06-08T06:28:28.582Z,14.40
2019-06-08T06:30:58.222Z,13.75
2019-06-08T06:33:33.743Z,10.80
2019-06-08T06:36:03.057Z,9.93
2019-06-08T06:38:32.544Z,10.20
2019-06-08T06:41:01.839Z,18.62
2019-06-08T06:43:34.141Z,11.88
2019-06-08T06:46:03.446Z,12.33
2019-06-08T06:48:32.893Z,15.70
2019-06-08T06:51:02.243Z,17.15
2019-06-08T06:54:11.329Z,12.80
2019-06-08T06:56:47.262Z,17.85
2019-06-08T07:01:57.531Z,11.05
2019-06-08T07:04:26.524Z,11.85
2019-06-08T07:07:04.643Z,13.83
2019-06-08T07:09:52.839Z,12.20
2019-06-08T07:12:16.040Z,18.17
2019-06-08T07:17:30.993Z,10.20
2019-06-08T07:20:01.955Z,13.98
2019-06-08T07:22:31.320Z,12.65
2019-06-08T07:25:00.819Z,12.20
2019-06-08T07:32:51.118Z,10.10
2019-06-08T07:35:32.298Z,11.18
2019-06-08T07:38:33.732Z,11.03
2019-06-08T07:41:40.565Z,12.78
2019-06-08T07:44:16.508Z,14.53
2019-06-08T07:59:02.925Z,10.75
2019-06-08T08:02:12.290Z,15.80
2019-06-08T08:06:19.662Z,17.05
2019-06-08T08:09:57.027Z,13.78
2019-06-08T08:12:18.810Z,11.08
2019-06-08T08:23:13.299Z,12.68
2019-06-08T08:29:19.516Z,11.50
2019-06-08T08:31:50.297Z,10.58
2019-06-08T08:34:28.351Z,9.00
2019-06-08T08:37:05.951Z,11.55
2019-06-08T08:39:31.944Z,9.93
2019-06-08T08:42:08.442Z,11.30
2019-06-08T08:50:02.098Z,8.05
2019-06-08T08:51:00.789Z,10.70
2019-06-08T08:53:33.519Z,9.20
2019-06-08T08:56:04.200Z,8.15
2019-06-08T08:58:34.179Z,9.00
2019-06-08T09:01:08.285Z,8.50
2019-06-08T09:03:39.541Z,17.00
2019-06-08T09:06:08.919Z,8.48
2019-06-08T09:08:38.347Z,12.73
2019-06-08T09:11:08.310Z,13.65
2019-06-08T09:13:37.887Z,10.65
2019-06-08T09:16:08.010Z,11.18
2019-06-08T09:18:37.718Z,9.53
2019-06-08T09:21:08.456Z,12.05
2019-06-08T09:23:37.999Z,12.45
2019-06-08T09:26:11.862Z,13.48
2019-06-08T09:28:40.889Z,8.75
2019-06-08T09:31:12.988Z,10.38
2019-06-08T09:33:41.978Z,8.23
2019-06-08T09:36:11.621Z,10.13
2019-06-08T09:38:41.937Z,10.32
2019-06-08T09:41:28.220Z,12.95
2019-06-08T09:44:03.161Z,12.25
2019-06-08T09:46:20.674Z,8.80
2019-06-08T09:48:50.134Z,6.30
2019-06-08T09:51:19.457Z,9.33
2019-06-08T09:53:48.926Z,10.88
2019-06-08T09:56:18.706Z,12.68
2019-06-08T09:58:51.123Z,9.68
2019-06-08T10:01:19.291Z,13.45
2019-06-08T10:03:48.880Z,9.40
2019-06-08T10:06:18.446Z,10.50
2019-06-08T10:08:48.122Z,6.92
2019-06-08T10:11:17.561Z,10.72
2019-06-08T10:13:47.767Z,16.93
2019-06-08T10:16:18.605Z,9.38
2019-06-08T10:18:51.523Z,11.10
2019-06-08T10:21:21.069Z,9.10
2019-06-08T10:23:50.616Z,8.08
2019-06-08T10:26:19.949Z,11.40
2019-06-08T10:28:51.250Z,13.18
2019-06-08T10:31:27.651Z,11.50
2019-06-08T10:33:51.958Z,10.85
2019-06-08T10:36:21.409Z,7.45
2019-06-08T10:38:51.042Z,9.85
2019-06-08T10:41:21.919Z,7.42
2019-06-08T10:43:51.584Z,7.67
2019-06-08T10:46:21.162Z,11.50
2019-06-08T10:48:50.628Z,10.32
2019-06-08T10:51:20.066Z,7.97
2019-06-08T10:53:52.891Z,12.30
2019-06-08T10:56:20.473Z,10.35
2019-06-08T10:58:49.987Z,7.25
2019-06-08T11:01:19.340Z,11.03
2019-06-08T11:03:49.083Z,8.28
2019-06-08T11:06:18.989Z,12.00
2019-06-08T11:08:48.405Z,11.90
2019-06-08T11:11:20.257Z,9.93
2019-06-08T11:13:50.519Z,8.33
2019-06-08T11:16:20.091Z,8.33
2019-06-08T11:18:51.143Z,8.15
2019-06-08T11:21:20.555Z,7.87
2019-06-08T11:24:05.847Z,6.90
2019-06-08T11:26:24.391Z,7.20
2019-06-08T11:28:52.123Z,5.47
2019-06-08T11:31:21.504Z,4.87
2019-06-08T11:33:58.876Z,10.45
2019-06-08T11:36:28.290Z,13.62
2019-06-08T11:38:59.186Z,13.90
2019-06-08T11:41:35.068Z,6.10
2019-06-08T11:44:06.862Z,6.80
2019-06-08T11:46:38.464Z,12.00
2019-06-08T11:49:11.707Z,5.28
2019-06-08T11:51:38.402Z,8.33
2019-06-08T11:54:25.048Z,6.85
2019-06-08T11:56:40.343Z,6.65
2019-06-08T11:59:14.155Z,6.97
2019-06-08T12:01:42.144Z,10.55
2019-06-08T12:04:11.936Z,6.10
2019-06-08T12:06:41.297Z,7.60
2019-06-08T12:09:12.306Z,7.30
2019-06-08T12:11:41.712Z,6.67
2019-06-08T12:14:12.703Z,9.95
2019-06-08T12:16:42.181Z,9.23
2019-06-08T12:19:15.046Z,8.90
2019-06-08T12:21:42.785Z,6.95
2019-06-08T12:24:12.418Z,9.33
2019-06-08T12:26:41.841Z,10.03
2019-06-08T12:29:12.765Z,7.92
2019-06-08T12:31:42.252Z,9.60
2019-06-08T12:34:11.646Z,7.33
2019-06-08T12:36:40.988Z,8.95
2019-06-08T12:39:10.310Z,10.70
2019-06-08T12:41:39.663Z,8.63
2019-06-08T12:44:10.394Z,4.90
2019-06-08T12:46:41.348Z,3.77
2019-06-08T12:49:11.701Z,7.55
2019-06-08T12:51:42.036Z,8.05
2019-06-08T12:54:12.762Z,7.65
2019-06-08T12:56:42.445Z,7.47
2019-06-08T12:59:14.666Z,6.70
2019-06-08T13:01:42.777Z,9.13
2019-06-08T13:04:12.126Z,8.13
2019-06-08T13:06:41.454Z,6.42
2019-06-08T13:09:11.971Z,7.90
2019-06-08T13:11:41.871Z,8.58
2019-06-08T13:14:11.826Z,11.88
2019-06-08T13:16:42.295Z,6.03
2019-06-08T13:19:13.071Z,9.53
2019-06-08T13:21:42.676Z,19.93
2019-06-08T13:24:13.177Z,7.05
2019-06-08T13:26:42.554Z,11.78
2019-06-08T13:29:12.556Z,7.92
2019-06-08T13:31:44.673Z,4.37
2019-06-08T13:34:15.427Z,7.62
2019-06-08T13:36:45.079Z,13.28
2019-06-08T13:39:14.964Z,8.75
2019-06-08T13:41:44.344Z,9.33
2019-06-08T13:44:13.678Z,20.70
2019-06-08T13:46:42.995Z,50.35
2019-06-08T13:49:12.365Z,33.85
2019-06-08T13:51:41.670Z,59.20
2019-06-08T13:54:11.260Z,66.77
2019-06-08T13:56:42.204Z,9.80
2019-06-08T13:59:25.038Z,8.95
2019-06-08T14:01:52.604Z,6.15
2019-06-08T14:04:22.540Z,5.70
2019-06-08T14:06:53.264Z,8.18
2019-06-08T14:09:31.115Z,5.62
2019-06-08T14:11:58.042Z,8.35
2019-06-08T14:14:29.657Z,9.48
2019-06-08T14:17:00.843Z,11.00
2019-06-08T14:19:32.375Z,8.80
2019-06-08T14:22:01.494Z,11.25
2019-06-08T14:24:34.475Z,12.05
2019-06-08T14:27:03.910Z,11.60
2019-06-08T14:29:34.755Z,13.25
2019-06-08T14:32:07.698Z,14.25
2019-06-08T14:34:38.817Z,8.55
2019-06-08T14:37:08.624Z,8.75
2019-06-08T14:39:38.288Z,16.10
2019-06-08T14:42:08.262Z,8.55
2019-06-08T14:44:38.200Z,6.33
2019-06-08T14:47:27.754Z,4.55
2019-06-08T14:49:58.518Z,6.90
2019-06-08T14:52:29.752Z,5.22
2019-06-08T14:54:58.888Z,5.12
2019-06-08T14:57:40.294Z,5.60
2019-06-08T15:00:12.375Z,8.88
2019-06-08T15:02:41.475Z,5.17
2019-06-08T15:05:11.143Z,5.27
2019-06-08T15:07:58.135Z,8.78
2019-06-08T15:10:29.395Z,9.05
2019-06-08T15:12:58.830Z,5.92
2019-06-08T15:15:30.741Z,5.35
2019-06-08T15:17:59.512Z,6.70
2019-06-08T15:20:30.406Z,8.23
2019-06-08T15:23:11.729Z,8.60
2019-06-08T15:28:13.442Z,5.85
2019-06-08T15:30:46.341Z,6.17
2019-06-08T15:33:18.196Z,7.17
2019-06-08T15:35:48.258Z,3.85
2019-06-08T15:38:20.809Z,2.80
2019-06-08T15:40:49.047Z,5.78
2019-06-08T15:43:18.661Z,8.23
2019-06-08T15:45:51.206Z,4.95
2019-06-08T15:48:20.461Z,4.47
2019-06-08T15:50:51.394Z,8.55
2019-06-08T15:53:24.354Z,7.65
2019-06-08T15:55:53.628Z,4.80
2019-06-08T15:58:23.267Z,4.05
2019-06-08T16:00:55.501Z,4.08
2019-06-08T16:03:25.215Z,4.12
2019-06-08T16:05:54.767Z,3.62
2019-06-08T16:08:24.192Z,3.90
2019-06-08T16:10:53.657Z,4.97
2019-06-08T16:13:24.618Z,4.72
2019-06-08T16:15:54.302Z,3.35
2019-06-08T16:18:24.283Z,3.55
2019-06-08T16:20:54.774Z,4.62
2019-06-08T16:23:25.343Z,4.15
2019-06-08T16:25:54.847Z,5.45
2019-06-08T16:28:25.684Z,3.77
2019-06-08T16:31:05.743Z,7.37
2019-06-08T16:34:21.098Z,6.00
2019-06-08T16:37:12.309Z,2.70
2019-06-08T16:40:04.352Z,4.30
2019-06-08T16:42:58.060Z,4.47
2019-06-08T16:46:17.192Z,3.02
2019-06-08T16:48:59.526Z,2.08
2019-06-08T16:51:44.921Z,5.03
2019-06-08T16:54:18.118Z,2.80
2019-06-08T16:57:10.089Z,6.45
2019-06-08T17:00:30.153Z,5.90
2019-06-08T17:02:43.477Z,6.37
2019-06-08T17:05:18.548Z,5.83
2019-06-08T17:07:56.289Z,6.45
2019-06-08T17:11:14.291Z,4.47
2019-06-08T17:14:25.077Z,3.47
2019-06-08T17:17:32.024Z,5.75
2019-06-08T17:20:47.937Z,4.25
2019-06-08T17:23:25.809Z,7.08
2019-06-08T17:25:59.412Z,3.22
2019-06-08T17:28:44.311Z,5.78
2019-06-08T17:31:24.895Z,5.62
2019-06-08T17:34:25.114Z,2.50
2019-06-08T17:37:35.687Z,3.27
2019-06-08T17:40:27.930Z,2.65
2019-06-08T17:42:51.177Z,3.15
2019-06-08T17:45:22.295Z,5.12
2019-06-08T17:47:54.976Z,4.37
2019-06-08T17:50:27.275Z,3.10
2019-06-08T17:52:59.543Z,2.35
2019-06-08T17:55:30.376Z,3.95
2019-06-08T17:58:01.240Z,5.53
2019-06-08T18:00:51.291Z,7.22
2019-06-08T18:03:21.107Z,5.58
2019-06-08T18:05:58.081Z,5.78
2019-06-08T18:08:29.554Z,8.33
2019-06-08T18:10:59.250Z,8.60
2019-06-08T18:13:43.811Z,7.15
2019-06-08T18:16:17.447Z,8.95
2019-06-08T18:19:17.189Z,7.75
2019-06-08T18:21:48.126Z,8.03
2019-06-08T18:24:19.027Z,8.80
2019-06-08T18:26:48.860Z,7.24
2019-06-08T18:29:19.938Z,8.48
2019-06-08T18:32:22.843Z,7.45
2019-06-08T18:34:59.897Z,7.25
2019-06-08T18:37:38.104Z,8.68
2019-06-08T18:40:08.393Z,7.40
2019-06-08T18:42:39.984Z,7.62
2019-06-08T18:45:10.182Z,9.88
2019-06-08T18:47:40.818Z,11.70
2019-06-08T18:50:13.313Z,9.15
2019-06-08T18:52:45.061Z,7.72
2019-06-08T18:55:15.188Z,6.22
2019-06-08T18:57:45.768Z,6.58
2019-06-08T19:00:19.052Z,4.83
2019-06-08T19:02:49.998Z,3.67
2019-06-08T19:05:21.328Z,6.85
2019-06-08T19:07:53.448Z,8.10
2019-06-08T19:10:32.030Z,8.47
2019-06-08T19:13:08.067Z,7.95
2019-06-08T19:15:52.553Z,5.53
2019-06-08T19:18:24.322Z,7.53
2019-06-08T19:20:53.592Z,8.90
2019-06-08T19:23:22.847Z,8.78
2019-06-08T19:25:54.344Z,6.37
2019-06-08T19:28:35.837Z,7.20
2019-06-08T19:30:58.813Z,8.98
2019-06-08T19:33:28.297Z,9.25
2019-06-08T19:35:59.024Z,7.83
2019-06-08T19:38:28.720Z,10.28
2019-06-08T19:41:00.227Z,10.13
2019-06-08T19:43:29.390Z,11.43
2019-06-08T19:45:58.878Z,11.57
2019-06-08T19:48:31.387Z,10.13
2019-06-08T19:53:29.945Z,6.47
2019-06-08T19:56:01.718Z,4.58
2019-06-08T19:58:33.703Z,6.12
2019-06-08T20:01:07.483Z,8.90
2019-06-08T20:03:38.703Z,6.33
2019-06-08T20:06:08.275Z,7.53
2019-06-08T20:08:49.929Z,7.78
2019-06-08T20:11:18.660Z,6.03
2019-06-08T20:13:50.450Z,5.58
2019-06-08T20:16:20.026Z,4.42
2019-06-08T20:18:51.668Z,6.35
2019-06-08T20:21:23.366Z,4.47
2019-06-08T20:23:53.360Z,10.43
2019-06-08T20:26:25.147Z,7.62
2019-06-08T20:29:11.280Z,4.30
2019-06-08T20:31:27.338Z,4.65
2019-06-08T20:33:57.651Z,4.72
2019-06-08T20:36:28.943Z,5.00
2019-06-08T20:39:00.037Z,4.03
2019-06-08T20:41:29.620Z,4.30
2019-06-08T20:43:59.160Z,4.58
2019-06-08T20:46:28.915Z,3.25
2019-06-08T20:48:58.487Z,3.37
2019-06-08T20:51:29.318Z,6.53
2019-06-08T20:53:58.796Z,4.15
2019-06-08T20:56:29.539Z,4.03
2019-06-08T20:58:59.007Z,4.87
2019-06-08T21:01:28.403Z,4.75
2019-06-08T21:03:59.863Z,5.08
2019-06-08T21:06:29.464Z,6.30
2019-06-08T21:08:59.924Z,5.90
2019-06-08T21:11:29.411Z,7.65
2019-06-08T21:13:58.897Z,7.97
2019-06-08T21:16:28.692Z,11.78
2019-06-08T21:18:58.423Z,9.43
2019-06-08T21:21:28.462Z,11.93
2019-06-08T21:24:01.001Z,10.48
2019-06-08T21:26:31.978Z,13.65
2019-06-08T21:29:01.549Z,11.48
2019-06-08T21:31:31.093Z,10.23
2019-06-08T21:34:01.026Z,10.82
2019-06-08T21:36:30.622Z,9.45
2019-06-08T21:39:02.517Z,12.50
2019-06-08T21:41:31.447Z,11.90
2019-06-08T21:44:02.180Z,10.32
2019-06-08T21:46:32.793Z,11.18
2019-06-08T21:49:02.263Z,7.00
2019-06-08T21:51:31.622Z,7.10
2019-06-08T21:54:01.188Z,6.75
2019-06-08T21:56:30.588Z,6.40
2019-06-08T21:59:01.100Z,7.58
2019-06-08T22:01:32.620Z,7.17
2019-06-08T22:04:02.388Z,11.45
2019-06-08T22:06:31.935Z,6.62
2019-06-08T22:09:02.826Z,8.90
2019-06-08T22:11:32.411Z,9.60
2019-06-08T22:14:03.014Z,6.37
2019-06-08T22:16:32.810Z,9.10
2019-06-08T22:19:03.391Z,8.05
2019-06-08T22:21:34.587Z,10.60
2019-06-08T22:24:07.923Z,14.45
2019-06-08T22:26:37.788Z,10.70
2019-06-08T22:29:07.966Z,12.68
2019-06-08T22:31:37.827Z,12.03
2019-06-08T22:34:07.492Z,10.00
2019-06-08T22:36:37.350Z,10.78
2019-06-08T22:39:08.342Z,11.28
2019-06-08T22:41:39.487Z,9.70
2019-06-08T22:44:09.232Z,10.32
2019-06-08T22:46:38.701Z,12.63
2019-06-08T22:49:10.265Z,9.65
2019-06-08T22:51:40.768Z,7.35
2019-06-08T22:54:10.305Z,6.85
2019-06-08T22:56:39.847Z,8.35
2019-06-08T22:59:09.418Z,8.95
2019-06-08T23:01:39.022Z,7.03
2019-06-08T23:04:09.655Z,7.78
2019-06-08T23:06:40.484Z,8.98
2019-06-08T23:09:09.946Z,9.08
2019-06-08T23:11:39.595Z,8.88
2019-06-08T23:14:12.966Z,10.35
2019-06-08T23:16:40.202Z,9.40
2019-06-08T23:19:09.606Z,10.40
2019-06-08T23:21:39.253Z,12.13
2019-06-08T23:24:08.710Z,16.82
2019-06-08T23:26:38.133Z,16.48
2019-06-08T23:29:09.588Z,18.00
2019-06-08T23:31:41.792Z,14.18
2019-06-08T23:34:12.415Z,11.65
2019-06-08T23:36:58.655Z,12.37
2019-06-08T23:39:12.977Z,11.95
2019-06-08T23:41:42.562Z,11.40
2019-06-08T23:44:11.930Z,9.48
2019-06-08T23:46:41.333Z,7.67
2019-06-08T23:49:10.794Z,8.73
2019-06-08T23:51:41.472Z,12.20
2019-06-08T23:54:12.510Z,11.78
2019-06-08T23:56:42.107Z,9.03
2019-06-08T23:59:11.402Z,12.07
